Lake Mills, Iowa
Current Conditions -  °F | °C
As of 7:50 AM on Monday 24 Nov 2014 (Local Time) from KFXY Reporting Station
Overcast Overcast  
Wind Chill:   Ceiling: 1000
Heat Index: 21°   Visibility: 7mi
Dew Point: 19°   Wind: 24mph
Humidity: 93%   Direction: 310°NW
Pressure: 29.42"   Gusts: 32mph
Location:  43.42°N, 93.53°W
Report Text: KFXY 241350Z AUTO 31021G28KT 7SM OVC010 M06/M07 A2942 RMK AO2
Loading
Personal Weather Stations






























Interactive Weather Map New forecast layout! Learn more

10-Day Weather Forecast

Advertisements
Track Severe Weather on mobile